Opp, AL

5:06 PM CDT on April 19, 2015 (GMT -0500)
Opp Cablevision Headend | | Change Station
CLOSE
Current Station
Personal Weather Station
Location: Opp, AL
Elevation: 327 ft
Nearby Weather Stations

Elev 327 ft 31.29 °N, 86.26 °W | Updated 1 second ago

Overcast
Overcast
77.7 °F
Feels Like 80 °F
N
2.0
Wind Variable Wind from SW
Gusts 6.0 mph

Today
High -- | Low -- °F
--% Chance of Precip.
Yesterday
High -- | Low -- °F
Precip. -- in
6:12 AM 7:16 PM
New Moon, 2% visible
Pressure 29.79 in
Visibility 10.0 miles
Clouds Scattered Clouds 3000 ft
Mostly Cloudy 4000 ft
Heat Index 80 °F
Dew Point 71 °F
Humidity 79%
Rainfall 0.60 in
Snow Depth Not available.
UV 2 out of 12
Pollen 5.80 out of 12
Air Quality Not available.
Flu Activity Sporadic
METAR K0J4 192158Z AUTO 19010KT 10SM SCT030 BKN040 24/19 A2980 RMK AO2 SLP088 T02440189 PNO $

More Conditions Fewer Conditions

Pressure 29.79 in
Visibility 10.0 miles
Clouds Scattered Clouds 3000 ft
Mostly Cloudy 4000 ft
Heat Index 80 °F
Dew Point 71 °F
Humidity 79%
Rainfall 0.60 in
Snow Depth Not available.
UV 2 out of 12
Pollen 5.80 out of 12
Air Quality Not available.
Flu Activity Sporadic
METAR K0J4 192158Z AUTO 19010KT 10SM SCT030 BKN040 24/19 A2980 RMK AO2 SLP088 T02440189 PNO $

More Conditions Fewer Conditions

10-Day Weather Forecast

Almanac

Astronomy

Apr. 19, 2015 Rise Set
Actual Time
Civil Twilight
Nautical Twilight
Astronomical Twilight
Moon
Length of Visible Light
Length of Day
Tomorrow will be .
, % of the Moon is Illuminated

Today's Extremes

State Highs State Lows

Community

WunderPhotos

Upload Photos

1,814,999 photos uploaded!

WunderBlogs® & News

Nearby

Air Quality

  Air Quality AQ Index Pollutant
Not available.

Snow Depth

Station Depth Elevation

Earthquake Activity

City Distance Mag. Time & Date
Minimum magnitude displayed is 2.5.

Coastal Water Temperatures

Place Temperature

Stations

Nearby Weather Stations

Station Location Temp. Windchill Dew Point Humidity Wind Precip. Elev Updated Type